createdAt,value
2018-03-11T00:01:51.035Z,11.60
2018-03-11T00:02:53.538Z,11.60
2018-03-11T00:03:56.050Z,11.60
2018-03-11T00:04:59.325Z,11.70
2018-03-11T00:06:01.831Z,11.60
2018-03-11T00:07:04.348Z,11.60
2018-03-11T00:08:06.837Z,11.60
2018-03-11T00:09:10.872Z,11.60
2018-03-11T00:10:13.379Z,11.60
2018-03-11T00:11:15.864Z,11.60
2018-03-11T00:12:18.369Z,11.70
2018-03-11T00:13:21.674Z,11.60
2018-03-11T00:14:24.171Z,11.60
2018-03-11T00:15:26.662Z,11.70
2018-03-11T00:16:29.159Z,11.70
2018-03-11T00:17:32.415Z,11.70
2018-03-11T00:18:34.925Z,11.60
2018-03-11T00:19:38.204Z,11.70
2018-03-11T00:20:41.473Z,11.70
2018-03-11T00:21:43.974Z,11.70
2018-03-11T00:22:47.240Z,11.70
2018-03-11T00:23:49.730Z,11.60
2018-03-11T00:24:52.999Z,11.70
2018-03-11T00:25:55.492Z,11.70
2018-03-11T00:26:58.753Z,11.70
2018-03-11T00:28:01.250Z,11.70
2018-03-11T00:29:04.506Z,11.70
2018-03-11T00:30:07.049Z,11.70
2018-03-11T00:31:09.544Z,11.70
2018-03-11T00:32:12.046Z,11.70
2018-03-11T00:33:15.325Z,11.70
2018-03-11T00:34:18.592Z,11.80
2018-03-11T00:35:21.144Z,11.70
2018-03-11T00:36:23.642Z,11.80
2018-03-11T00:37:26.146Z,11.80
2018-03-11T00:38:28.641Z,11.80
2018-03-11T00:39:31.152Z,11.80
2018-03-11T00:40:33.762Z,11.80
2018-03-11T00:41:36.283Z,11.80
2018-03-11T00:42:38.816Z,11.80
2018-03-11T00:43:41.333Z,11.80
2018-03-11T00:44:44.590Z,12.00
2018-03-11T00:45:47.124Z,11.80
2018-03-11T00:46:50.441Z,11.80
2018-03-11T00:47:52.952Z,11.80
2018-03-11T00:48:55.440Z,11.80
2018-03-11T00:49:58.762Z,11.80
2018-03-11T00:51:01.282Z,11.80
2018-03-11T00:52:03.899Z,11.80
2018-03-11T00:53:06.469Z,11.80
2018-03-11T00:54:09.042Z,11.80
2018-03-11T00:55:11.532Z,11.80
2018-03-11T00:56:14.059Z,11.80
2018-03-11T00:57:17.351Z,11.80
2018-03-11T00:58:20.612Z,11.80
2018-03-11T00:59:23.121Z,11.70
2018-03-11T01:00:25.630Z,11.80
2018-03-11T01:01:28.158Z,11.80
2018-03-11T01:02:31.406Z,11.80
2018-03-11T01:03:33.922Z,11.80
2018-03-11T01:04:36.447Z,11.80
2018-03-11T01:05:38.948Z,11.80
2018-03-11T01:06:42.243Z,11.80
2018-03-11T01:07:44.744Z,11.80
2018-03-11T01:08:47.231Z,11.80
2018-03-11T01:09:49.736Z,11.80
2018-03-11T01:10:52.234Z,11.80
2018-03-11T01:11:54.791Z,11.80
2018-03-11T01:12:57.267Z,11.80
2018-03-11T01:13:59.773Z,11.80
2018-03-11T01:15:02.282Z,11.80
2018-03-11T01:16:05.563Z,11.80
2018-03-11T01:17:08.080Z,11.80
2018-03-11T01:18:10.612Z,11.80
2018-03-11T01:19:13.876Z,11.80
2018-03-11T01:20:16.403Z,11.80
2018-03-11T01:21:18.895Z,11.80
2018-03-11T01:22:21.400Z,11.80
2018-03-11T01:23:23.891Z,11.80
2018-03-11T01:24:27.168Z,11.80
2018-03-11T01:25:30.430Z,11.80
2018-03-11T01:26:32.935Z,11.80
2018-03-11T01:27:36.210Z,11.80
2018-03-11T01:28:38.705Z,11.80
2018-03-11T01:29:42.001Z,11.80
2018-03-11T01:30:44.493Z,11.80
2018-03-11T01:31:47.003Z,11.80
2018-03-11T01:32:49.528Z,11.70
2018-03-11T01:33:52.021Z,11.70
2018-03-11T01:34:54.522Z,11.70
2018-03-11T01:35:57.020Z,11.60
2018-03-11T01:36:59.533Z,11.60
2018-03-11T01:38:02.056Z,11.60
2018-03-11T01:39:05.308Z,11.50
2018-03-11T01:40:07.816Z,11.40
2018-03-11T01:41:11.096Z,11.30
2018-03-11T01:42:14.354Z,11.20
2018-03-11T01:43:16.863Z,11.20
2018-03-11T01:44:20.120Z,11.10
2018-03-11T01:45:22.628Z,11.00
2018-03-11T01:46:25.138Z,11.00
2018-03-11T01:47:27.643Z,10.90
2018-03-11T01:48:30.148Z,10.90
2018-03-11T01:49:32.642Z,10.80
2018-03-11T01:50:35.138Z,10.90
2018-03-11T01:51:37.639Z,10.80
2018-03-11T01:52:52.961Z,10.70
2018-03-11T01:53:56.244Z,10.70
2018-03-11T01:54:58.770Z,10.70
2018-03-11T01:56:02.043Z,10.70
2018-03-11T01:57:04.533Z,10.60
2018-03-11T01:58:07.045Z,10.60
2018-03-11T01:59:09.573Z,10.60
2018-03-11T02:00:12.138Z,10.60
2018-03-11T02:01:15.411Z,10.60
2018-03-11T02:02:17.921Z,10.60
2018-03-11T02:03:20.457Z,10.60
2018-03-11T02:04:22.955Z,10.70
2018-03-11T02:05:25.468Z,10.70
2018-03-11T02:06:27.967Z,10.60
2018-03-11T02:07:31.232Z,10.70
2018-03-11T02:08:33.744Z,10.70
2018-03-11T02:09:36.262Z,10.70
2018-03-11T02:10:38.753Z,10.70
2018-03-11T02:11:41.272Z,10.70
2018-03-11T02:12:43.768Z,10.70
2018-03-11T02:13:46.291Z,10.70
2018-03-11T02:14:49.570Z,10.70
2018-03-11T02:15:52.856Z,10.70
2018-03-11T02:16:56.120Z,10.70
2018-03-11T02:17:58.624Z,10.70
2018-03-11T02:19:01.897Z,10.70
2018-03-11T02:20:05.181Z,10.70
2018-03-11T02:21:09.472Z,10.70
2018-03-11T02:22:12.006Z,10.60
2018-03-11T02:23:14.523Z,10.60
2018-03-11T02:24:17.047Z,10.60
2018-03-11T02:25:19.550Z,10.50
2018-03-11T02:26:22.043Z,10.50
2018-03-11T02:27:24.542Z,10.40
2018-03-11T02:28:27.041Z,10.40
2018-03-11T02:29:29.530Z,10.40
2018-03-11T02:30:32.067Z,10.30
2018-03-11T02:31:34.568Z,10.20
2018-03-11T02:32:37.855Z,10.10
2018-03-11T02:33:40.352Z,10.10
2018-03-11T02:34:42.866Z,10.10
2018-03-11T02:35:45.474Z,10.10
2018-03-11T02:36:47.981Z,10.00
2018-03-11T02:37:51.234Z,9.90
2018-03-11T02:38:53.754Z,10.00
2018-03-11T02:39:56.254Z,9.90
2018-03-11T02:40:58.775Z,9.90
2018-03-11T02:42:02.048Z,9.80
2018-03-11T02:43:04.535Z,9.80
2018-03-11T02:44:07.797Z,9.80
2018-03-11T02:45:11.087Z,9.80
2018-03-11T02:46:13.586Z,9.80
2018-03-11T02:47:16.845Z,9.80
2018-03-11T02:48:19.336Z,9.70
2018-03-11T02:49:22.624Z,9.70
2018-03-11T02:50:25.889Z,9.80
2018-03-11T02:51:28.441Z,9.70
2018-03-11T02:52:30.945Z,9.80
2018-03-11T02:53:33.434Z,9.70
2018-03-11T02:54:37.152Z,9.70
2018-03-11T02:55:39.656Z,9.70
2018-03-11T02:56:42.173Z,9.70
2018-03-11T02:57:45.448Z,9.60
2018-03-11T02:58:48.730Z,9.60
2018-03-11T02:59:51.215Z,9.60
2018-03-11T03:00:54.479Z,9.60
2018-03-11T03:01:56.979Z,9.50
2018-03-11T03:03:00.241Z,9.50
2018-03-11T03:04:02.754Z,9.50
2018-03-11T03:05:05.249Z,9.50
2018-03-11T03:06:07.742Z,9.50
2018-03-11T03:07:10.270Z,9.50
2018-03-11T03:08:12.760Z,9.50
2018-03-11T03:09:15.281Z,9.40
2018-03-11T03:10:18.568Z,9.40
2018-03-11T03:11:21.860Z,9.30
2018-03-11T03:12:25.141Z,9.30
2018-03-11T03:13:28.407Z,9.30
2018-03-11T03:14:30.917Z,9.30
2018-03-11T03:15:34.181Z,9.20
2018-03-11T03:16:36.687Z,9.20
2018-03-11T03:17:39.197Z,9.20
2018-03-11T03:18:41.695Z,9.10
2018-03-11T03:19:44.209Z,9.20
2018-03-11T03:20:46.770Z,9.20
2018-03-11T03:21:49.279Z,9.20
2018-03-11T03:22:51.776Z,9.20
2018-03-11T03:23:55.072Z,9.20
2018-03-11T03:24:58.330Z,9.10
2018-03-11T03:26:00.826Z,9.20
2018-03-11T03:27:04.117Z,9.20
2018-03-11T03:28:07.392Z,9.20
2018-03-11T03:29:09.927Z,9.20
2018-03-11T03:30:12.431Z,9.20
2018-03-11T03:31:14.944Z,9.10
2018-03-11T03:32:18.210Z,9.10
2018-03-11T03:33:21.476Z,9.10
2018-03-11T03:34:23.969Z,9.10
2018-03-11T03:35:27.219Z,9.00
2018-03-11T03:36:29.705Z,9.00
2018-03-11T03:37:32.195Z,9.00
2018-03-11T03:38:35.466Z,9.00
2018-03-11T03:39:37.980Z,8.90
2018-03-11T03:40:40.543Z,9.00
2018-03-11T03:41:43.038Z,9.00
2018-03-11T03:42:45.543Z,9.00
2018-03-11T03:43:48.811Z,9.00
2018-03-11T03:44:51.312Z,9.00
2018-03-11T03:45:53.813Z,9.00
2018-03-11T03:46:56.386Z,9.00
2018-03-11T03:47:58.880Z,9.00
2018-03-11T03:49:01.375Z,8.90
2018-03-11T03:50:04.653Z,8.90
2018-03-11T03:51:07.157Z,8.90
2018-03-11T03:52:09.674Z,8.90
2018-03-11T03:53:12.170Z,8.90
2018-03-11T03:54:14.663Z,8.90
2018-03-11T03:55:17.173Z,8.90
2018-03-11T03:56:19.673Z,8.90
2018-03-11T03:57:22.168Z,8.90
2018-03-11T03:58:25.426Z,8.90
2018-03-11T03:59:27.935Z,8.90
2018-03-11T04:00:30.409Z,8.90
2018-03-11T04:01:33.679Z,8.90
2018-03-11T04:02:36.191Z,8.90
2018-03-11T04:03:38.689Z,8.90
2018-03-11T04:04:41.190Z,9.00
2018-03-11T04:05:43.718Z,9.00
2018-03-11T04:06:46.213Z,9.00
2018-03-11T04:07:48.720Z,9.00
2018-03-11T04:08:51.982Z,9.00
2018-03-11T04:09:54.491Z,9.00
2018-03-11T04:10:57.003Z,9.00
2018-03-11T04:11:59.496Z,9.00
2018-03-11T04:13:01.984Z,9.10
2018-03-11T04:14:05.244Z,9.10
2018-03-11T04:15:07.740Z,9.10
2018-03-11T04:16:11.013Z,9.20
2018-03-11T04:17:14.278Z,9.20
2018-03-11T04:18:16.783Z,9.20
2018-03-11T04:19:20.045Z,9.20
2018-03-11T04:20:22.548Z,9.20
2018-03-11T04:21:25.820Z,9.20
2018-03-11T04:22:28.296Z,9.20
2018-03-11T04:23:31.557Z,9.20
2018-03-11T04:24:34.059Z,9.20
2018-03-11T04:25:37.319Z,9.10
2018-03-11T04:26:39.823Z,9.10
2018-03-11T04:27:43.080Z,9.10
2018-03-11T04:28:45.574Z,9.10
2018-03-11T04:29:48.848Z,9.10
2018-03-11T04:30:51.344Z,9.00
2018-03-11T04:31:54.628Z,9.00
2018-03-11T04:32:57.890Z,9.00
2018-03-11T04:34:00.386Z,9.00
2018-03-11T04:35:03.646Z,9.00
2018-03-11T04:36:06.150Z,9.00
2018-03-11T04:37:08.668Z,9.00
2018-03-11T04:38:11.244Z,9.10
2018-03-11T04:39:13.715Z,9.10
2018-03-11T04:40:16.227Z,9.10
2018-03-11T04:41:19.505Z,9.00
2018-03-11T04:42:22.762Z,9.10
2018-03-11T04:43:25.252Z,9.00
2018-03-11T04:44:27.749Z,9.10
2018-03-11T04:45:31.002Z,9.00
2018-03-11T04:46:33.520Z,9.00
2018-03-11T04:47:36.026Z,9.00
2018-03-11T04:48:38.550Z,9.00
2018-03-11T04:49:41.806Z,9.00
2018-03-11T04:50:44.539Z,9.00
2018-03-11T04:51:47.052Z,9.00
2018-03-11T04:52:50.318Z,9.00
2018-03-11T04:53:52.817Z,9.00
2018-03-11T04:54:55.298Z,8.90
2018-03-11T04:55:58.568Z,9.00
2018-03-11T04:57:01.084Z,8.90
2018-03-11T04:58:03.647Z,8.90
2018-03-11T04:59:06.153Z,8.90
2018-03-11T05:00:08.643Z,8.90
2018-03-11T05:01:11.139Z,9.00
2018-03-11T05:02:14.398Z,9.00
2018-03-11T05:03:16.886Z,9.00
2018-03-11T05:04:19.491Z,9.00
2018-03-11T05:05:21.979Z,9.00
2018-03-11T05:06:24.479Z,8.90
2018-03-11T05:07:26.981Z,8.90
2018-03-11T05:08:30.232Z,9.00
2018-03-11T05:09:32.727Z,9.00
2018-03-11T05:10:35.991Z,9.00
2018-03-11T05:11:38.491Z,9.00
2018-03-11T05:12:41.774Z,9.10
2018-03-11T05:13:45.041Z,9.00
2018-03-11T05:14:47.590Z,9.00
2018-03-11T05:15:50.056Z,9.00
2018-03-11T05:16:52.545Z,9.00
2018-03-11T05:17:55.174Z,9.00
2018-03-11T05:18:57.700Z,9.00
2018-03-11T05:20:01.709Z,9.00
2018-03-11T05:21:04.221Z,9.00
2018-03-11T05:22:06.711Z,9.00
2018-03-11T05:23:09.216Z,9.00
2018-03-11T05:24:13.240Z,9.00
2018-03-11T05:25:16.524Z,9.00
2018-03-11T05:26:19.798Z,9.00
2018-03-11T05:27:22.298Z,9.00
2018-03-11T05:28:25.581Z,8.90
2018-03-11T05:29:28.842Z,8.90
2018-03-11T05:30:31.330Z,8.90
2018-03-11T05:31:34.583Z,8.90
2018-03-11T05:32:37.067Z,8.90
2018-03-11T05:33:39.596Z,8.90
2018-03-11T05:34:42.132Z,8.80
2018-03-11T05:35:45.394Z,8.80
2018-03-11T05:36:47.914Z,8.80
2018-03-11T05:37:50.404Z,8.80
2018-03-11T05:38:52.905Z,8.70
2018-03-11T05:39:55.428Z,8.70
2018-03-11T05:40:57.922Z,8.70
2018-03-11T05:42:00.418Z,8.70
2018-03-11T05:43:03.685Z,8.70
2018-03-11T05:44:06.177Z,8.70
2018-03-11T05:45:09.568Z,8.70
2018-03-11T05:46:12.265Z,8.60
2018-03-11T05:47:15.519Z,8.60
2018-03-11T05:48:18.012Z,8.60
2018-03-11T05:49:20.502Z,8.60
2018-03-11T05:50:23.792Z,8.60
2018-03-11T05:51:27.070Z,8.60
2018-03-11T05:52:30.351Z,8.60
2018-03-11T05:53:33.619Z,8.50
2018-03-11T05:54:36.114Z,8.50
2018-03-11T05:55:38.626Z,8.50
2018-03-11T05:56:41.114Z,8.50
2018-03-11T05:57:43.612Z,8.50
2018-03-11T05:58:46.227Z,8.50
2018-03-11T05:59:48.730Z,8.50
2018-03-11T06:00:51.242Z,8.50
2018-03-11T06:01:54.502Z,8.50
2018-03-11T06:02:57.006Z,8.50
2018-03-11T06:04:00.275Z,8.50
2018-03-11T06:05:02.772Z,8.50
2018-03-11T06:06:06.064Z,8.50
2018-03-11T06:07:08.567Z,8.50
2018-03-11T06:08:11.134Z,8.60
2018-03-11T06:09:13.660Z,8.60
2018-03-11T06:10:16.936Z,8.60
2018-03-11T06:11:20.943Z,8.60
2018-03-11T06:12:23.444Z,8.50
2018-03-11T06:13:25.938Z,8.60
2018-03-11T06:14:28.430Z,8.60
2018-03-11T06:15:30.929Z,8.60
2018-03-11T06:16:34.195Z,8.60
2018-03-11T06:17:36.690Z,8.60
2018-03-11T06:18:39.950Z,8.70
2018-03-11T06:19:42.463Z,8.70
2018-03-11T06:20:44.960Z,8.70
2018-03-11T06:21:47.479Z,8.70
2018-03-11T06:22:49.975Z,8.70
2018-03-11T06:23:52.470Z,8.70
2018-03-11T06:24:54.969Z,8.80
2018-03-11T06:25:57.470Z,8.80
2018-03-11T06:27:00.756Z,8.80
2018-03-11T06:28:04.015Z,8.80
2018-03-11T06:29:06.534Z,8.90
2018-03-11T06:30:09.038Z,8.80
2018-03-11T06:31:11.627Z,8.90
2018-03-11T06:32:14.148Z,8.90
2018-03-11T06:33:16.637Z,8.90
2018-03-11T06:34:19.124Z,8.90
2018-03-11T06:35:21.606Z,8.90
2018-03-11T06:36:24.107Z,8.90
2018-03-11T06:37:27.447Z,9.00
2018-03-11T06:38:29.950Z,9.00
2018-03-11T06:39:32.442Z,9.00
2018-03-11T06:40:35.702Z,9.00
2018-03-11T06:41:38.201Z,9.00
2018-03-11T06:42:41.469Z,9.10
2018-03-11T06:43:43.959Z,9.10
2018-03-11T06:44:47.219Z,9.20
2018-03-11T06:45:49.728Z,9.20
2018-03-11T06:46:52.983Z,9.30
2018-03-11T06:47:55.489Z,9.20
2018-03-11T06:48:57.982Z,9.30
2018-03-11T06:50:00.488Z,9.40
2018-03-11T06:51:03.756Z,9.50
2018-03-11T06:52:06.251Z,9.40
2018-03-11T06:53:08.759Z,9.50
2018-03-11T06:54:11.387Z,9.60
2018-03-11T06:55:13.892Z,9.70
2018-03-11T06:56:16.389Z,9.70
2018-03-11T06:57:18.945Z,9.80
2018-03-11T06:58:21.448Z,9.80
2018-03-11T06:59:23.947Z,9.80
2018-03-11T07:00:26.434Z,9.90
2018-03-11T07:01:29.691Z,9.90
2018-03-11T07:02:32.178Z,9.90
2018-03-11T07:03:35.447Z,9.90
2018-03-11T07:04:37.944Z,9.90
2018-03-11T07:05:41.227Z,10.00
2018-03-11T07:06:43.830Z,10.00
2018-03-11T07:07:46.379Z,10.10
2018-03-11T07:08:49.662Z,10.20
2018-03-11T07:09:52.935Z,10.20
2018-03-11T07:10:55.463Z,10.20
2018-03-11T07:11:57.996Z,10.30
2018-03-11T07:13:01.304Z,10.40
2018-03-11T07:14:03.803Z,10.40
2018-03-11T07:15:06.300Z,10.30
2018-03-11T07:16:08.798Z,10.40
2018-03-11T07:17:11.442Z,10.40
2018-03-11T07:18:13.991Z,10.40
2018-03-11T07:19:16.487Z,10.50
2018-03-11T07:20:18.981Z,10.50
2018-03-11T07:21:22.251Z,10.60
2018-03-11T07:22:24.770Z,10.60
2018-03-11T07:23:27.281Z,10.60
2018-03-11T07:24:29.776Z,10.60
2018-03-11T07:25:33.038Z,10.60
2018-03-11T07:26:35.548Z,10.60
2018-03-11T07:27:38.051Z,10.60
2018-03-11T07:28:40.561Z,10.60
2018-03-11T07:29:43.075Z,10.60
2018-03-11T07:30:45.579Z,10.60
2018-03-11T07:31:48.114Z,10.70
2018-03-11T07:32:50.611Z,10.70
2018-03-11T07:33:53.119Z,10.80
2018-03-11T07:34:55.631Z,10.90
2018-03-11T07:35:58.170Z,11.00
2018-03-11T07:37:01.408Z,11.30
2018-03-11T07:38:03.933Z,11.20
2018-03-11T07:39:07.180Z,11.40
2018-03-11T07:40:09.764Z,11.40
2018-03-11T07:41:12.469Z,11.60
2018-03-11T07:42:15.739Z,11.90
2018-03-11T07:43:18.235Z,11.90
2018-03-11T07:44:20.739Z,11.90
2018-03-11T07:45:23.256Z,12.00
2018-03-11T07:46:25.754Z,12.00
2018-03-11T07:47:28.247Z,12.10
2018-03-11T07:48:30.732Z,12.10
2018-03-11T07:49:33.230Z,12.10
2018-03-11T07:50:36.527Z,11.90
2018-03-11T07:51:39.836Z,11.80
2018-03-11T07:52:42.327Z,11.90
2018-03-11T07:53:44.815Z,11.80
2018-03-11T07:54:47.321Z,11.70
2018-03-11T07:55:50.641Z,11.70
2018-03-11T07:56:53.164Z,11.70
2018-03-11T07:57:55.663Z,11.70
2018-03-11T07:58:58.941Z,11.80
2018-03-11T08:00:02.186Z,11.80
2018-03-11T08:01:04.703Z,11.80
2018-03-11T08:02:07.955Z,11.80
2018-03-11T08:03:10.546Z,11.80
2018-03-11T08:04:13.074Z,11.80
2018-03-11T08:05:15.566Z,11.70
2018-03-11T08:06:18.082Z,11.70
2018-03-11T08:07:21.343Z,11.60
2018-03-11T08:08:23.938Z,11.60
2018-03-11T08:09:27.200Z,11.60
2018-03-11T08:10:29.715Z,11.60
2018-03-11T08:11:32.230Z,11.60
2018-03-11T08:12:34.727Z,11.70
2018-03-11T08:13:37.979Z,11.60
2018-03-11T08:14:40.515Z,11.60
2018-03-11T08:15:43.034Z,11.60
2018-03-11T08:16:45.587Z,11.60
2018-03-11T08:17:48.086Z,11.50
2018-03-11T08:18:51.349Z,11.60
2018-03-11T08:19:53.847Z,11.60
2018-03-11T08:20:56.360Z,11.60
2018-03-11T08:21:58.864Z,11.60
2018-03-11T08:23:01.377Z,11.60
2018-03-11T08:24:04.639Z,11.80
2018-03-11T08:25:07.147Z,11.80
2018-03-11T08:26:09.677Z,11.90
2018-03-11T08:27:12.509Z,12.10
2018-03-11T08:28:15.016Z,12.30
2018-03-11T08:29:17.517Z,12.50
2018-03-11T08:30:20.780Z,12.90
2018-03-11T08:31:23.298Z,12.90
2018-03-11T08:32:25.867Z,13.10
2018-03-11T08:33:28.365Z,13.30
2018-03-11T08:34:30.862Z,13.40
2018-03-11T08:35:33.378Z,13.50
2018-03-11T08:36:35.878Z,13.50
2018-03-11T08:37:38.434Z,13.50
2018-03-11T08:38:40.931Z,13.50
2018-03-11T08:39:43.439Z,13.40
2018-03-11T08:40:46.710Z,13.30
2018-03-11T08:41:49.976Z,13.10
2018-03-11T08:42:52.522Z,13.10
2018-03-11T08:43:55.028Z,13.10
2018-03-11T08:44:57.539Z,13.00
2018-03-11T08:46:00.802Z,12.90
2018-03-11T08:47:03.408Z,12.80
2018-03-11T08:48:05.932Z,12.80
2018-03-11T08:49:08.439Z,12.90
2018-03-11T08:50:11.971Z,12.80
2018-03-11T08:51:14.572Z,12.80
2018-03-11T08:52:17.099Z,12.70
2018-03-11T08:53:19.606Z,12.80
2018-03-11T08:54:22.109Z,12.70
2018-03-11T08:55:25.386Z,12.70
2018-03-11T08:56:28.646Z,12.60
2018-03-11T08:57:31.178Z,12.60
2018-03-11T08:58:33.676Z,12.50
2018-03-11T08:59:36.176Z,12.50
2018-03-11T09:00:38.689Z,12.40
2018-03-11T09:01:41.213Z,12.40
2018-03-11T09:02:43.728Z,12.40
2018-03-11T09:03:46.260Z,12.40
2018-03-11T09:04:48.791Z,12.40
2018-03-11T09:05:51.296Z,12.50
2018-03-11T09:06:53.801Z,12.60
2018-03-11T09:07:56.304Z,12.50
2018-03-11T09:08:58.806Z,12.50
2018-03-11T09:10:01.319Z,12.50
2018-03-11T09:11:03.832Z,12.60
2018-03-11T09:12:06.343Z,12.60
2018-03-11T09:13:09.798Z,12.70
2018-03-11T09:14:12.519Z,12.70
2018-03-11T09:15:15.054Z,12.80
2018-03-11T09:16:17.557Z,12.70
2018-03-11T09:17:20.053Z,12.80
2018-03-11T09:18:22.550Z,12.80
2018-03-11T09:19:25.067Z,12.90
2018-03-11T09:20:28.368Z,13.00
2018-03-11T09:21:30.875Z,12.90
2018-03-11T09:22:33.383Z,12.90
2018-03-11T09:23:36.676Z,12.90
2018-03-11T09:24:39.997Z,13.00
2018-03-11T09:25:42.529Z,12.90
2018-03-11T09:26:45.825Z,13.00
2018-03-11T09:27:49.075Z,13.10
2018-03-11T09:28:51.596Z,13.10
2018-03-11T09:29:54.090Z,13.30
2018-03-11T09:30:56.620Z,13.40
2018-03-11T09:31:59.897Z,13.80
2018-03-11T09:33:03.170Z,14.00
2018-03-11T09:34:05.683Z,14.00
2018-03-11T09:35:08.179Z,14.10
2018-03-11T09:36:10.743Z,14.30
2018-03-11T09:37:13.285Z,14.50
2018-03-11T09:38:16.580Z,14.60
2018-03-11T09:39:19.094Z,14.60
2018-03-11T09:40:21.646Z,14.80
2018-03-11T09:41:24.198Z,14.80
2018-03-11T09:42:26.728Z,14.90
2018-03-11T09:43:29.254Z,15.00
2018-03-11T09:44:31.775Z,15.00
2018-03-11T09:45:34.297Z,15.10
2018-03-11T09:46:36.835Z,15.10
2018-03-11T09:47:40.091Z,15.10
2018-03-11T09:48:42.583Z,15.10
2018-03-11T09:49:45.885Z,15.10
2018-03-11T09:50:49.159Z,15.10
2018-03-11T09:51:51.685Z,15.10
2018-03-11T09:52:54.218Z,15.00
2018-03-11T09:53:57.512Z,14.90
2018-03-11T09:55:00.019Z,14.90
2018-03-11T09:56:02.540Z,14.90
2018-03-11T09:57:05.825Z,14.80
2018-03-11T09:58:09.148Z,14.60
2018-03-11T09:59:11.737Z,14.60
2018-03-11T10:00:14.276Z,14.50
2018-03-11T10:01:16.818Z,14.50
2018-03-11T10:02:19.354Z,14.40
2018-03-11T10:03:22.001Z,14.40
2018-03-11T10:04:24.538Z,14.30
2018-03-11T10:05:27.056Z,14.30
2018-03-11T10:06:29.594Z,14.30
2018-03-11T10:07:32.888Z,14.30
2018-03-11T10:08:36.150Z,14.40
2018-03-11T10:09:39.463Z,14.40
2018-03-11T10:10:41.980Z,14.40
2018-03-11T10:11:44.492Z,14.40
2018-03-11T10:12:47.816Z,14.40
2018-03-11T10:13:50.355Z,14.30
2018-03-11T10:14:53.618Z,14.30
2018-03-11T10:15:56.122Z,14.30
2018-03-11T10:16:59.425Z,14.40
2018-03-11T10:18:01.968Z,14.40
2018-03-11T10:19:05.281Z,14.40
2018-03-11T10:20:07.795Z,14.40
2018-03-11T10:21:10.592Z,14.40
2018-03-11T10:22:13.146Z,14.40
2018-03-11T10:23:15.664Z,14.50
2018-03-11T10:24:18.172Z,14.60
2018-03-11T10:25:20.774Z,14.70
2018-03-11T10:26:23.388Z,14.70
2018-03-11T10:27:25.899Z,14.80
2018-03-11T10:28:28.538Z,14.80
2018-03-11T10:29:31.085Z,14.90
2018-03-11T10:30:34.334Z,15.20
2018-03-11T10:31:36.841Z,15.20
2018-03-11T10:32:40.133Z,15.50
2018-03-11T10:33:43.413Z,15.50
2018-03-11T10:34:46.721Z,15.70
2018-03-11T10:35:49.239Z,15.70
2018-03-11T10:36:51.768Z,15.80
2018-03-11T10:37:54.282Z,15.90
2018-03-11T10:38:56.806Z,15.90
2018-03-11T10:39:59.329Z,16.10
2018-03-11T10:41:01.855Z,16.10
2018-03-11T10:42:04.383Z,16.30
2018-03-11T10:43:06.915Z,16.40
2018-03-11T10:44:09.604Z,16.50
2018-03-11T10:45:12.153Z,16.50
2018-03-11T10:46:14.660Z,16.40
2018-03-11T10:47:18.672Z,16.50
2018-03-11T10:48:21.240Z,16.50
2018-03-11T10:49:23.748Z,16.50
2018-03-11T10:50:26.276Z,16.60
2018-03-11T10:51:28.775Z,16.70
2018-03-11T10:52:32.779Z,16.60
2018-03-11T10:53:36.072Z,16.50
2018-03-11T10:54:39.401Z,16.30
2018-03-11T10:55:41.906Z,16.30
2018-03-11T10:56:44.523Z,16.40
2018-03-11T10:57:47.045Z,16.40
2018-03-11T10:58:49.598Z,16.50
2018-03-11T10:59:52.123Z,16.50
2018-03-11T11:00:54.658Z,16.50
2018-03-11T11:02:02.888Z,16.50
2018-03-11T11:03:12.138Z,16.70
2018-03-11T11:04:15.489Z,16.60
2018-03-11T11:05:18.031Z,16.70
2018-03-11T11:06:20.576Z,16.80
2018-03-11T11:07:23.091Z,16.70
2018-03-11T11:08:25.616Z,16.80
2018-03-11T11:09:28.125Z,16.80
2018-03-11T11:10:30.647Z,16.70
2018-03-11T11:11:33.163Z,16.80
2018-03-11T11:12:35.909Z,16.80
2018-03-11T11:13:38.487Z,16.90
2018-03-11T11:14:41.008Z,16.90
2018-03-11T11:15:43.588Z,16.90
2018-03-11T11:16:46.964Z,16.90
2018-03-11T11:17:50.272Z,17.00
2018-03-11T11:18:52.808Z,17.00
2018-03-11T11:19:55.330Z,17.10
2018-03-11T11:20:57.865Z,17.20
2018-03-11T11:22:00.406Z,17.30
2018-03-11T11:23:02.893Z,17.30
2018-03-11T11:24:05.396Z,17.30
2018-03-11T11:25:08.663Z,17.20
2018-03-11T11:26:12.204Z,17.20
2018-03-11T11:27:14.957Z,17.20
2018-03-11T11:28:18.235Z,17.20
2018-03-11T11:29:21.519Z,17.30
2018-03-11T11:30:24.806Z,17.30
2018-03-11T11:31:27.367Z,17.30
2018-03-11T11:32:29.892Z,17.30
2018-03-11T11:33:32.413Z,17.20
2018-03-11T11:34:35.023Z,17.20
2018-03-11T11:35:37.537Z,17.10
2018-03-11T11:36:40.040Z,17.20
2018-03-11T11:37:43.315Z,17.30
2018-03-11T11:38:45.832Z,17.30
2018-03-11T11:39:48.317Z,17.40
2018-03-11T11:40:50.842Z,17.40
2018-03-11T11:41:54.162Z,17.20
2018-03-11T11:42:56.731Z,17.20
2018-03-11T11:43:59.240Z,17.10
2018-03-11T11:45:01.767Z,17.10
2018-03-11T11:46:04.294Z,17.10
2018-03-11T11:47:06.813Z,17.10
2018-03-11T11:48:09.352Z,17.10
2018-03-11T11:49:12.811Z,17.00
2018-03-11T11:50:15.323Z,17.00
2018-03-11T11:51:18.598Z,16.90
2018-03-11T11:52:21.872Z,17.00
2018-03-11T11:53:24.388Z,16.90
2018-03-11T11:54:26.889Z,16.90
2018-03-11T11:55:29.399Z,17.00
2018-03-11T11:56:32.693Z,16.90
2018-03-11T11:57:35.997Z,17.00
2018-03-11T11:58:39.294Z,17.10
2018-03-11T11:59:41.865Z,17.10
2018-03-11T12:00:44.415Z,17.10
2018-03-11T12:01:46.899Z,17.10
2018-03-11T12:02:49.402Z,17.00
2018-03-11T12:03:51.913Z,17.00
2018-03-11T12:04:55.201Z,17.10
2018-03-11T12:05:58.476Z,17.20
2018-03-11T12:07:01.050Z,17.20
2018-03-11T12:08:03.563Z,17.30
2018-03-11T12:09:06.693Z,17.30
2018-03-11T12:10:09.192Z,17.40
2018-03-11T12:11:12.609Z,17.50
2018-03-11T12:12:15.216Z,17.50
2018-03-11T12:13:17.717Z,17.30
2018-03-11T12:14:20.254Z,17.30
2018-03-11T12:15:22.759Z,17.30
2018-03-11T12:16:26.049Z,17.10
2018-03-11T12:17:29.339Z,16.90
2018-03-11T12:18:31.869Z,16.90
2018-03-11T12:19:34.415Z,16.70
2018-03-11T12:20:36.928Z,16.50
2018-03-11T12:21:39.454Z,16.50
2018-03-11T12:22:41.971Z,16.30
2018-03-11T12:23:44.463Z,16.20
2018-03-11T12:24:46.987Z,16.10
2018-03-11T12:25:49.633Z,16.10
2018-03-11T12:26:52.180Z,16.00
2018-03-11T12:27:55.453Z,15.90
2018-03-11T12:28:59.476Z,15.90
2018-03-11T12:30:02.798Z,15.90
2018-03-11T12:31:05.300Z,15.90
2018-03-11T12:32:07.809Z,15.90
2018-03-11T12:33:11.176Z,16.00
2018-03-11T12:34:13.803Z,15.90
2018-03-11T12:35:16.338Z,16.00
2018-03-11T12:36:18.848Z,16.00
2018-03-11T12:37:21.356Z,16.10
2018-03-11T12:38:23.881Z,16.10
2018-03-11T12:39:26.386Z,16.10
2018-03-11T12:40:28.901Z,16.20
2018-03-11T12:41:32.179Z,16.30
2018-03-11T12:42:35.569Z,16.30
2018-03-11T12:43:38.988Z,16.30
2018-03-11T12:44:41.506Z,16.40
2018-03-11T12:45:44.014Z,16.40
2018-03-11T12:46:47.276Z,16.50
2018-03-11T12:47:49.775Z,16.40
2018-03-11T12:48:52.279Z,16.40
2018-03-11T12:49:54.791Z,16.40
2018-03-11T12:50:58.076Z,16.30
2018-03-11T12:52:00.587Z,16.30
2018-03-11T12:53:03.097Z,16.30
2018-03-11T12:54:05.598Z,16.20
2018-03-11T12:55:08.892Z,16.30
2018-03-11T12:56:12.320Z,16.40
2018-03-11T12:57:14.811Z,16.40
2018-03-11T12:58:17.325Z,16.40
2018-03-11T12:59:20.608Z,16.40
2018-03-11T13:00:23.892Z,16.40
2018-03-11T13:01:27.180Z,16.30
2018-03-11T13:02:30.500Z,16.30
2018-03-11T13:03:33.019Z,16.30
2018-03-11T13:04:35.527Z,16.20
2018-03-11T13:05:38.050Z,16.20
2018-03-11T13:06:40.578Z,16.10
2018-03-11T13:07:43.103Z,16.10
2018-03-11T13:08:45.594Z,16.10
2018-03-11T13:09:48.872Z,16.20
2018-03-11T13:10:51.397Z,16.20
2018-03-11T13:11:54.055Z,16.20
2018-03-11T13:12:56.576Z,16.20
2018-03-11T13:14:00.609Z,16.10
2018-03-11T13:15:03.883Z,16.10
2018-03-11T13:16:06.383Z,16.10
2018-03-11T13:17:08.914Z,16.00
2018-03-11T13:18:11.603Z,16.10
2018-03-11T13:19:14.940Z,16.20
2018-03-11T13:20:29.508Z,16.20
2018-03-11T13:21:32.028Z,16.20
2018-03-11T13:22:35.336Z,16.20
2018-03-11T13:23:37.838Z,16.20
2018-03-11T13:24:40.328Z,16.40
2018-03-11T13:25:42.878Z,16.40
2018-03-11T13:26:45.375Z,16.40
2018-03-11T13:27:59.769Z,16.40
2018-03-11T13:29:02.285Z,16.50
2018-03-11T13:30:04.784Z,16.50
2018-03-11T13:31:07.404Z,16.50
2018-03-11T13:32:21.758Z,16.60
2018-03-11T13:33:35.996Z,16.60
2018-03-11T13:34:38.512Z,16.60
2018-03-11T13:35:41.044Z,16.50
2018-03-11T13:36:43.702Z,16.50
2018-03-11T13:37:46.225Z,16.40
2018-03-11T13:39:00.742Z,16.50